sensor_id;sensor_type;location;lat;lon;timestamp;temperature;humidity
9118;DHT22;4594;50.994;7.126;2023-07-28T00:02:10;19.90;75.10
9118;DHT22;4594;50.994;7.126;2023-07-28T00:04:36;19.90;75.20
9118;DHT22;4594;50.994;7.126;2023-07-28T00:07:03;19.90;75.30
9118;DHT22;4594;50.994;7.126;2023-07-28T00:09:29;19.90;75.20
9118;DHT22;4594;50.994;7.126;2023-07-28T00:11:57;19.90;74.90
9118;DHT22;4594;50.994;7.126;2023-07-28T00:14:23;19.90;74.90
9118;DHT22;4594;50.994;7.126;2023-07-28T00:16:54;19.90;75.00
9118;DHT22;4594;50.994;7.126;2023-07-28T00:19:21;19.90;75.00
9118;DHT22;4594;50.994;7.126;2023-07-28T00:21:50;19.90;75.10
9118;DHT22;4594;50.994;7.126;2023-07-28T00:24:17;19.90;74.50
9118;DHT22;4594;50.994;7.126;2023-07-28T00:26:44;19.90;75.00
9118;DHT22;4594;50.994;7.126;2023-07-28T00:29:10;19.80;74.90
9118;DHT22;4594;50.994;7.126;2023-07-28T00:31:35;19.80;74.90
9118;DHT22;4594;50.994;7.126;2023-07-28T00:34:02;19.80;75.00
9118;DHT22;4594;50.994;7.126;2023-07-28T00:36:29;19.80;74.90
9118;DHT22;4594;50.994;7.126;2023-07-28T00:38:55;19.80;74.80
9118;DHT22;4594;50.994;7.126;2023-07-28T00:41:21;19.80;74.70
9118;DHT22;4594;50.994;7.126;2023-07-28T00:43:47;19.80;74.80
9118;DHT22;4594;50.994;7.126;2023-07-28T00:46:13;19.80;75.00
9118;DHT22;4594;50.994;7.126;2023-07-28T00:48:40;19.80;75.00
9118;DHT22;4594;50.994;7.126;2023-07-28T00:51:07;19.80;75.00
9118;DHT22;4594;50.994;7.126;2023-07-28T00:53:33;19.80;74.90
9118;DHT22;4594;50.994;7.126;2023-07-28T00:55:59;19.80;75.00
9118;DHT22;4594;50.994;7.126;2023-07-28T00:58:26;19.80;75.10
9118;DHT22;4594;50.994;7.126;2023-07-28T01:00:52;19.80;75.30
9118;DHT22;4594;50.994;7.126;2023-07-28T01:03:18;19.80;75.50
9118;DHT22;4594;50.994;7.126;2023-07-28T01:08:46;19.80;75.70
9118;DHT22;4594;50.994;7.126;2023-07-28T01:11:17;19.80;75.80
9118;DHT22;4594;50.994;7.126;2023-07-28T01:13:43;19.80;75.80
9118;DHT22;4594;50.994;7.126;2023-07-28T01:16:09;19.80;75.80
9118;DHT22;4594;50.994;7.126;2023-07-28T01:18:35;19.80;75.90
9118;DHT22;4594;50.994;7.126;2023-07-28T01:21:03;19.80;76.00
9118;DHT22;4594;50.994;7.126;2023-07-28T01:23:39;19.80;75.70
9118;DHT22;4594;50.994;7.126;2023-07-28T01:26:14;19.80;75.50
9118;DHT22;4594;50.994;7.126;2023-07-28T01:28:42;19.90;75.90
9118;DHT22;4594;50.994;7.126;2023-07-28T01:31:09;19.90;76.10
9118;DHT22;4594;50.994;7.126;2023-07-28T01:33:36;19.80;75.90
9118;DHT22;4594;50.994;7.126;2023-07-28T01:36:02;19.90;75.90
9118;DHT22;4594;50.994;7.126;2023-07-28T01:38:28;19.90;75.90
9118;DHT22;4594;50.994;7.126;2023-07-28T01:40:54;19.90;75.90
9118;DHT22;4594;50.994;7.126;2023-07-28T01:43:20;19.90;75.90
9118;DHT22;4594;50.994;7.126;2023-07-28T01:45:46;19.90;75.90
9118;DHT22;4594;50.994;7.126;2023-07-28T01:48:12;19.90;75.90
9118;DHT22;4594;50.994;7.126;2023-07-28T01:50:38;19.90;76.00
9118;DHT22;4594;50.994;7.126;2023-07-28T01:53:05;19.90;76.00
9118;DHT22;4594;50.994;7.126;2023-07-28T01:55:31;19.90;76.00
9118;DHT22;4594;50.994;7.126;2023-07-28T01:57:58;20.00;76.10
9118;DHT22;4594;50.994;7.126;2023-07-28T02:00:26;20.00;76.10
9118;DHT22;4594;50.994;7.126;2023-07-28T02:02:53;19.90;76.10
9118;DHT22;4594;50.994;7.126;2023-07-28T02:05:19;20.00;76.10
9118;DHT22;4594;50.994;7.126;2023-07-28T02:07:46;20.00;76.10
9118;DHT22;4594;50.994;7.126;2023-07-28T02:10:11;20.00;76.10
9118;DHT22;4594;50.994;7.126;2023-07-28T02:12:38;20.00;76.10
9118;DHT22;4594;50.994;7.126;2023-07-28T02:15:05;20.00;76.10
9118;DHT22;4594;50.994;7.126;2023-07-28T02:17:32;20.00;76.10
9118;DHT22;4594;50.994;7.126;2023-07-28T02:19:58;20.00;76.20
9118;DHT22;4594;50.994;7.126;2023-07-28T02:22:24;20.00;76.30
9118;DHT22;4594;50.994;7.126;2023-07-28T02:24:49;20.00;76.20
9118;DHT22;4594;50.994;7.126;2023-07-28T02:27:15;20.00;76.30
9118;DHT22;4594;50.994;7.126;2023-07-28T02:29:41;20.10;76.30
9118;DHT22;4594;50.994;7.126;2023-07-28T02:32:07;20.00;76.20
9118;DHT22;4594;50.994;7.126;2023-07-28T02:34:33;20.10;76.40
9118;DHT22;4594;50.994;7.126;2023-07-28T02:36:59;20.00;76.20
9118;DHT22;4594;50.994;7.126;2023-07-28T02:39:25;20.10;76.10
9118;DHT22;4594;50.994;7.126;2023-07-28T02:41:51;20.10;75.90
9118;DHT22;4594;50.994;7.126;2023-07-28T02:44:17;20.00;75.60
9118;DHT22;4594;50.994;7.126;2023-07-28T02:46:42;20.00;75.50
9118;DHT22;4594;50.994;7.126;2023-07-28T02:49:08;20.00;75.50
9118;DHT22;4594;50.994;7.126;2023-07-28T02:51:34;20.00;75.60
9118;DHT22;4594;50.994;7.126;2023-07-28T02:54:00;20.00;75.60
9118;DHT22;4594;50.994;7.126;2023-07-28T02:56:26;20.00;75.70
9118;DHT22;4594;50.994;7.126;2023-07-28T02:58:51;20.00;75.70
9118;DHT22;4594;50.994;7.126;2023-07-28T03:01:17;20.00;75.80
9118;DHT22;4594;50.994;7.126;2023-07-28T03:03:44;20.00;75.90
9118;DHT22;4594;50.994;7.126;2023-07-28T03:06:12;20.00;75.90
9118;DHT22;4594;50.994;7.126;2023-07-28T03:08:38;20.00;76.00
9118;DHT22;4594;50.994;7.126;2023-07-28T03:11:04;20.00;76.10
9118;DHT22;4594;50.994;7.126;2023-07-28T03:13:29;20.00;76.10
9118;DHT22;4594;50.994;7.126;2023-07-28T03:15:55;20.00;76.00
9118;DHT22;4594;50.994;7.126;2023-07-28T03:18:21;20.00;76.10
9118;DHT22;4594;50.994;7.126;2023-07-28T03:20:46;20.00;76.20
9118;DHT22;4594;50.994;7.126;2023-07-28T03:23:13;20.00;76.30
9118;DHT22;4594;50.994;7.126;2023-07-28T03:25:38;20.00;76.30
9118;DHT22;4594;50.994;7.126;2023-07-28T03:28:04;20.10;76.50
9118;DHT22;4594;50.994;7.126;2023-07-28T03:30:30;20.00;76.30
9118;DHT22;4594;50.994;7.126;2023-07-28T03:32:55;20.10;76.50
9118;DHT22;4594;50.994;7.126;2023-07-28T03:35:21;20.10;76.60
9118;DHT22;4594;50.994;7.126;2023-07-28T03:37:47;20.10;77.00
9118;DHT22;4594;50.994;7.126;2023-07-28T03:40:13;20.10;76.60
9118;DHT22;4594;50.994;7.126;2023-07-28T03:42:38;20.10;76.60
9118;DHT22;4594;50.994;7.126;2023-07-28T03:45:05;20.10;76.60
9118;DHT22;4594;50.994;7.126;2023-07-28T03:47:31;20.10;76.50
9118;DHT22;4594;50.994;7.126;2023-07-28T03:49:56;20.10;76.30
9118;DHT22;4594;50.994;7.126;2023-07-28T03:52:22;20.10;76.20
9118;DHT22;4594;50.994;7.126;2023-07-28T03:54:48;20.10;76.20
9118;DHT22;4594;50.994;7.126;2023-07-28T03:57:13;20.10;76.30
9118;DHT22;4594;50.994;7.126;2023-07-28T03:59:39;20.10;76.30
9118;DHT22;4594;50.994;7.126;2023-07-28T04:02:05;20.10;76.40
9118;DHT22;4594;50.994;7.126;2023-07-28T04:04:31;20.10;76.40
9118;DHT22;4594;50.994;7.126;2023-07-28T04:06:57;20.10;76.50
9118;DHT22;4594;50.994;7.126;2023-07-28T04:09:23;20.10;76.40
9118;DHT22;4594;50.994;7.126;2023-07-28T04:11:48;20.10;76.30
9118;DHT22;4594;50.994;7.126;2023-07-28T04:14:14;20.10;76.10
9118;DHT22;4594;50.994;7.126;2023-07-28T04:16:40;20.10;76.10
9118;DHT22;4594;50.994;7.126;2023-07-28T04:19:06;20.10;76.00
9118;DHT22;4594;50.994;7.126;2023-07-28T04:21:32;20.10;76.10
9118;DHT22;4594;50.994;7.126;2023-07-28T04:23:57;20.10;76.10
9118;DHT22;4594;50.994;7.126;2023-07-28T04:26:24;20.10;76.20
9118;DHT22;4594;50.994;7.126;2023-07-28T04:28:50;20.10;76.10
9118;DHT22;4594;50.994;7.126;2023-07-28T04:31:16;20.10;76.20
9118;DHT22;4594;50.994;7.126;2023-07-28T04:33:42;20.10;76.40
9118;DHT22;4594;50.994;7.126;2023-07-28T04:36:08;20.10;76.60
9118;DHT22;4594;50.994;7.126;2023-07-28T04:38:36;20.10;76.70
9118;DHT22;4594;50.994;7.126;2023-07-28T04:41:01;20.10;76.60
9118;DHT22;4594;50.994;7.126;2023-07-28T04:43:28;20.10;76.70
9118;DHT22;4594;50.994;7.126;2023-07-28T04:45:53;20.10;76.80
9118;DHT22;4594;50.994;7.126;2023-07-28T04:48:19;20.10;76.70
9118;DHT22;4594;50.994;7.126;2023-07-28T04:50:45;20.10;76.60
9118;DHT22;4594;50.994;7.126;2023-07-28T04:53:11;20.10;76.70
9118;DHT22;4594;50.994;7.126;2023-07-28T04:55:36;20.10;76.80
9118;DHT22;4594;50.994;7.126;2023-07-28T04:58:02;20.10;76.90
9118;DHT22;4594;50.994;7.126;2023-07-28T05:00:28;20.10;77.10
9118;DHT22;4594;50.994;7.126;2023-07-28T05:02:54;20.10;77.50
9118;DHT22;4594;50.994;7.126;2023-07-28T05:05:19;20.20;77.40
9118;DHT22;4594;50.994;7.126;2023-07-28T05:07:45;20.20;77.60
9118;DHT22;4594;50.994;7.126;2023-07-28T05:10:11;20.20;77.60
9118;DHT22;4594;50.994;7.126;2023-07-28T05:12:37;20.20;77.70
9118;DHT22;4594;50.994;7.126;2023-07-28T05:15:03;20.20;77.70
9118;DHT22;4594;50.994;7.126;2023-07-28T05:17:30;20.20;77.70
9118;DHT22;4594;50.994;7.126;2023-07-28T05:19:55;20.20;77.60
9118;DHT22;4594;50.994;7.126;2023-07-28T05:22:21;20.20;77.50
9118;DHT22;4594;50.994;7.126;2023-07-28T05:24:47;20.30;77.70
9118;DHT22;4594;50.994;7.126;2023-07-28T05:27:12;20.30;77.70
9118;DHT22;4594;50.994;7.126;2023-07-28T05:29:38;20.30;77.70
9118;DHT22;4594;50.994;7.126;2023-07-28T05:32:05;20.30;77.60
9118;DHT22;4594;50.994;7.126;2023-07-28T05:34:31;20.30;77.70
9118;DHT22;4594;50.994;7.126;2023-07-28T05:36:57;20.30;77.70
9118;DHT22;4594;50.994;7.126;2023-07-28T05:39:22;20.30;77.90
9118;DHT22;4594;50.994;7.126;2023-07-28T05:41:48;20.40;78.10
9118;DHT22;4594;50.994;7.126;2023-07-28T05:44:14;20.40;77.90
9118;DHT22;4594;50.994;7.126;2023-07-28T05:46:40;20.40;78.00
9118;DHT22;4594;50.994;7.126;2023-07-28T05:49:06;20.40;78.10
9118;DHT22;4594;50.994;7.126;2023-07-28T05:51:31;20.40;78.10
9118;DHT22;4594;50.994;7.126;2023-07-28T05:53:57;20.40;78.10
9118;DHT22;4594;50.994;7.126;2023-07-28T05:56:23;20.40;78.50
9118;DHT22;4594;50.994;7.126;2023-07-28T05:58:49;20.40;78.10
9118;DHT22;4594;50.994;7.126;2023-07-28T06:01:16;20.40;78.10
9118;DHT22;4594;50.994;7.126;2023-07-28T06:03:42;20.50;78.20
9118;DHT22;4594;50.994;7.126;2023-07-28T06:06:08;20.50;78.20
9118;DHT22;4594;50.994;7.126;2023-07-28T06:08:34;20.50;78.10
9118;DHT22;4594;50.994;7.126;2023-07-28T06:11:03;20.50;78.20
9118;DHT22;4594;50.994;7.126;2023-07-28T06:13:31;20.60;78.20
9118;DHT22;4594;50.994;7.126;2023-07-28T06:15:57;20.60;78.50
9118;DHT22;4594;50.994;7.126;2023-07-28T06:18:24;20.60;78.60
9118;DHT22;4594;50.994;7.126;2023-07-28T06:20:50;20.60;78.60
9118;DHT22;4594;50.994;7.126;2023-07-28T06:23:16;20.60;78.60
9118;DHT22;4594;50.994;7.126;2023-07-28T06:25:41;20.60;78.70
9118;DHT22;4594;50.994;7.126;2023-07-28T06:28:11;20.70;78.80
9118;DHT22;4594;50.994;7.126;2023-07-28T06:30:38;20.70;79.00
9118;DHT22;4594;50.994;7.126;2023-07-28T06:33:08;20.70;79.50
9118;DHT22;4594;50.994;7.126;2023-07-28T06:35:34;20.70;78.70
9118;DHT22;4594;50.994;7.126;2023-07-28T06:38:01;20.80;79.30
9118;DHT22;4594;50.994;7.126;2023-07-28T06:40:27;20.80;79.20
9118;DHT22;4594;50.994;7.126;2023-07-28T06:42:53;20.80;79.20
9118;DHT22;4594;50.994;7.126;2023-07-28T06:45:20;20.80;79.30
9118;DHT22;4594;50.994;7.126;2023-07-28T06:47:46;20.90;79.40
9118;DHT22;4594;50.994;7.126;2023-07-28T06:50:12;20.90;79.40
9118;DHT22;4594;50.994;7.126;2023-07-28T06:52:38;20.90;79.30
9118;DHT22;4594;50.994;7.126;2023-07-28T06:55:05;20.90;79.30
9118;DHT22;4594;50.994;7.126;2023-07-28T06:57:30;20.90;79.20
9118;DHT22;4594;50.994;7.126;2023-07-28T06:59:56;21.00;79.30
9118;DHT22;4594;50.994;7.126;2023-07-28T07:02:23;21.00;79.20
9118;DHT22;4594;50.994;7.126;2023-07-28T07:04:48;21.00;79.30
9118;DHT22;4594;50.994;7.126;2023-07-28T07:07:14;21.00;79.40
9118;DHT22;4594;50.994;7.126;2023-07-28T07:09:40;21.00;79.60
9118;DHT22;4594;50.994;7.126;2023-07-28T07:12:08;21.10;79.80
9118;DHT22;4594;50.994;7.126;2023-07-28T07:14:34;21.10;79.40
9118;DHT22;4594;50.994;7.126;2023-07-28T07:17:00;21.10;79.40
9118;DHT22;4594;50.994;7.126;2023-07-28T07:19:28;21.20;79.50
9118;DHT22;4594;50.994;7.126;2023-07-28T07:21:55;21.20;79.50
9118;DHT22;4594;50.994;7.126;2023-07-28T07:24:21;21.20;79.60
9118;DHT22;4594;50.994;7.126;2023-07-28T07:26:46;21.20;79.60
9118;DHT22;4594;50.994;7.126;2023-07-28T07:29:12;21.20;79.50
9118;DHT22;4594;50.994;7.126;2023-07-28T07:31:39;21.30;79.40
9118;DHT22;4594;50.994;7.126;2023-07-28T07:34:05;21.30;79.40
9118;DHT22;4594;50.994;7.126;2023-07-28T07:36:31;21.30;79.40
9118;DHT22;4594;50.994;7.126;2023-07-28T07:38:57;21.30;79.30
9118;DHT22;4594;50.994;7.126;2023-07-28T07:41:23;21.30;79.80
9118;DHT22;4594;50.994;7.126;2023-07-28T07:43:51;21.40;79.60
9118;DHT22;4594;50.994;7.126;2023-07-28T07:46:19;21.40;79.50
9118;DHT22;4594;50.994;7.126;2023-07-28T07:48:45;21.40;79.50
9118;DHT22;4594;50.994;7.126;2023-07-28T07:51:11;21.50;79.40
9118;DHT22;4594;50.994;7.126;2023-07-28T07:53:38;21.50;79.30
9118;DHT22;4594;50.994;7.126;2023-07-28T07:56:04;21.50;79.30
9118;DHT22;4594;50.994;7.126;2023-07-28T07:58:31;21.50;79.30
9118;DHT22;4594;50.994;7.126;2023-07-28T08:00:57;21.50;79.10
9118;DHT22;4594;50.994;7.126;2023-07-28T08:03:23;21.60;79.20
9118;DHT22;4594;50.994;7.126;2023-07-28T08:05:50;21.50;79.20
9118;DHT22;4594;50.994;7.126;2023-07-28T08:08:17;21.60;79.30
9118;DHT22;4594;50.994;7.126;2023-07-28T08:10:48;21.60;79.40
9118;DHT22;4594;50.994;7.126;2023-07-28T08:13:14;21.60;79.40
9118;DHT22;4594;50.994;7.126;2023-07-28T08:15:44;21.60;79.30
9118;DHT22;4594;50.994;7.126;2023-07-28T08:18:14;21.60;79.30
9118;DHT22;4594;50.994;7.126;2023-07-28T08:20:40;21.70;79.50
9118;DHT22;4594;50.994;7.126;2023-07-28T08:23:06;21.70;79.60
9118;DHT22;4594;50.994;7.126;2023-07-28T08:25:33;21.70;79.40
9118;DHT22;4594;50.994;7.126;2023-07-28T08:28:00;21.70;79.40
9118;DHT22;4594;50.994;7.126;2023-07-28T08:30:26;21.70;79.50
9118;DHT22;4594;50.994;7.126;2023-07-28T08:32:51;21.80;79.70
9118;DHT22;4594;50.994;7.126;2023-07-28T08:35:17;21.80;79.90
9118;DHT22;4594;50.994;7.126;2023-07-28T08:37:43;21.90;80.60
9118;DHT22;4594;50.994;7.126;2023-07-28T08:40:09;21.90;80.40
9118;DHT22;4594;50.994;7.126;2023-07-28T08:42:38;21.90;80.90
9118;DHT22;4594;50.994;7.126;2023-07-28T08:45:05;22.00;81.30
9118;DHT22;4594;50.994;7.126;2023-07-28T08:47:33;22.00;81.70
9118;DHT22;4594;50.994;7.126;2023-07-28T08:50:01;22.10;82.10
9118;DHT22;4594;50.994;7.126;2023-07-28T08:52:27;22.10;82.40
9118;DHT22;4594;50.994;7.126;2023-07-28T08:54:53;22.20;82.70
9118;DHT22;4594;50.994;7.126;2023-07-28T08:57:19;22.30;83.00
9118;DHT22;4594;50.994;7.126;2023-07-28T08:59:46;22.40;83.50
9118;DHT22;4594;50.994;7.126;2023-07-28T09:02:17;22.40;83.50
9118;DHT22;4594;50.994;7.126;2023-07-28T09:04:45;22.50;84.50
9118;DHT22;4594;50.994;7.126;2023-07-28T09:07:13;22.70;86.80
9118;DHT22;4594;50.994;7.126;2023-07-28T09:09:39;22.80;88.80
9118;DHT22;4594;50.994;7.126;2023-07-28T09:12:06;23.10;90.20
9118;DHT22;4594;50.994;7.126;2023-07-28T09:14:35;23.30;90.90
9118;DHT22;4594;50.994;7.126;2023-07-28T09:17:12;23.60;91.50
9118;DHT22;4594;50.994;7.126;2023-07-28T09:19:52;23.90;90.60
9118;DHT22;4594;50.994;7.126;2023-07-28T09:22:19;24.10;89.90
9118;DHT22;4594;50.994;7.126;2023-07-28T09:24:46;24.30;90.70
9118;DHT22;4594;50.994;7.126;2023-07-28T09:27:25;24.50;90.30
9118;DHT22;4594;50.994;7.126;2023-07-28T09:29:52;24.70;86.20
9118;DHT22;4594;50.994;7.126;2023-07-28T09:32:30;24.90;87.80
9118;DHT22;4594;50.994;7.126;2023-07-28T09:35:09;25.00;83.80
9118;DHT22;4594;50.994;7.126;2023-07-28T09:37:50;25.10;82.00
9118;DHT22;4594;50.994;7.126;2023-07-28T09:40:22;25.10;78.60
9118;DHT22;4594;50.994;7.126;2023-07-28T09:42:49;25.20;80.70
9118;DHT22;4594;50.994;7.126;2023-07-28T09:45:18;25.20;79.80
9118;DHT22;4594;50.994;7.126;2023-07-28T09:47:46;25.20;78.10
9118;DHT22;4594;50.994;7.126;2023-07-28T09:50:15;25.20;80.40
9118;DHT22;4594;50.994;7.126;2023-07-28T09:52:52;25.20;80.40
9118;DHT22;4594;50.994;7.126;2023-07-28T09:55:20;25.30;79.30
9118;DHT22;4594;50.994;7.126;2023-07-28T09:57:52;25.30;82.70
9118;DHT22;4594;50.994;7.126;2023-07-28T10:00:22;25.40;80.50
9118;DHT22;4594;50.994;7.126;2023-07-28T10:02:49;25.50;80.50
9118;DHT22;4594;50.994;7.126;2023-07-28T10:05:18;25.50;79.50
9118;DHT22;4594;50.994;7.126;2023-07-28T10:07:48;25.50;78.70
9118;DHT22;4594;50.994;7.126;2023-07-28T10:10:14;25.50;77.00
9118;DHT22;4594;50.994;7.126;2023-07-28T10:12:51;25.50;76.20
9118;DHT22;4594;50.994;7.126;2023-07-28T10:15:19;25.50;73.30
9118;DHT22;4594;50.994;7.126;2023-07-28T10:17:56;25.40;74.50
9118;DHT22;4594;50.994;7.126;2023-07-28T10:23:20;25.30;73.30
9118;DHT22;4594;50.994;7.126;2023-07-28T10:25:47;25.20;72.80
9118;DHT22;4594;50.994;7.126;2023-07-28T10:28:30;25.20;76.90
9118;DHT22;4594;50.994;7.126;2023-07-28T10:31:08;25.20;76.80
9118;DHT22;4594;50.994;7.126;2023-07-28T10:33:44;25.30;78.30
9118;DHT22;4594;50.994;7.126;2023-07-28T10:36:32;25.30;74.00
9118;DHT22;4594;50.994;7.126;2023-07-28T10:39:14;25.40;73.40
9118;DHT22;4594;50.994;7.126;2023-07-28T10:42:04;25.40;71.90
9118;DHT22;4594;50.994;7.126;2023-07-28T10:44:32;25.40;72.60
9118;DHT22;4594;50.994;7.126;2023-07-28T10:46:58;25.40;75.40
9118;DHT22;4594;50.994;7.126;2023-07-28T10:49:25;25.40;74.50
9118;DHT22;4594;50.994;7.126;2023-07-28T10:51:51;25.40;74.00
9118;DHT22;4594;50.994;7.126;2023-07-28T10:54:17;25.40;72.40
9118;DHT22;4594;50.994;7.126;2023-07-28T10:56:46;25.30;71.60
9118;DHT22;4594;50.994;7.126;2023-07-28T10:59:13;25.30;72.80
9118;DHT22;4594;50.994;7.126;2023-07-28T11:01:41;25.20;74.00
9118;DHT22;4594;50.994;7.126;2023-07-28T11:04:13;25.20;75.40
9118;DHT22;4594;50.994;7.126;2023-07-28T11:06:42;25.20;75.30
9118;DHT22;4594;50.994;7.126;2023-07-28T11:09:10;25.20;77.10
9118;DHT22;4594;50.994;7.126;2023-07-28T11:11:40;25.30;77.00
9118;DHT22;4594;50.994;7.126;2023-07-28T11:14:07;25.30;75.50
9118;DHT22;4594;50.994;7.126;2023-07-28T11:16:39;25.30;76.90
9118;DHT22;4594;50.994;7.126;2023-07-28T11:19:11;25.30;75.80
9118;DHT22;4594;50.994;7.126;2023-07-28T11:21:40;25.30;76.20
9118;DHT22;4594;50.994;7.126;2023-07-28T11:24:07;25.40;78.70
9118;DHT22;4594;50.994;7.126;2023-07-28T11:26:37;25.40;79.40
9118;DHT22;4594;50.994;7.126;2023-07-28T11:29:05;25.50;79.20
9118;DHT22;4594;50.994;7.126;2023-07-28T11:31:31;25.60;80.30
9118;DHT22;4594;50.994;7.126;2023-07-28T11:33:58;25.70;79.70
9118;DHT22;4594;50.994;7.126;2023-07-28T11:36:25;25.80;79.50
9118;DHT22;4594;50.994;7.126;2023-07-28T11:38:53;25.80;79.00
9118;DHT22;4594;50.994;7.126;2023-07-28T11:41:21;25.90;80.10
9118;DHT22;4594;50.994;7.126;2023-07-28T11:43:48;26.00;80.30
9118;DHT22;4594;50.994;7.126;2023-07-28T11:46:39;26.10;81.20
9118;DHT22;4594;50.994;7.126;2023-07-28T11:49:17;26.20;77.10
9118;DHT22;4594;50.994;7.126;2023-07-28T11:51:49;26.30;77.80
9118;DHT22;4594;50.994;7.126;2023-07-28T11:54:25;26.40;80.40
9118;DHT22;4594;50.994;7.126;2023-07-28T11:56:56;26.50;80.20
9118;DHT22;4594;50.994;7.126;2023-07-28T11:59:23;26.60;77.50
9118;DHT22;4594;50.994;7.126;2023-07-28T12:01:56;26.70;77.90
9118;DHT22;4594;50.994;7.126;2023-07-28T12:04:27;26.70;75.10
9118;DHT22;4594;50.994;7.126;2023-07-28T12:07:13;26.80;75.80
9118;DHT22;4594;50.994;7.126;2023-07-28T12:12:23;26.90;72.90
9118;DHT22;4594;50.994;7.126;2023-07-28T12:14:51;26.90;74.70
9118;DHT22;4594;50.994;7.126;2023-07-28T12:17:20;27.00;76.30
9118;DHT22;4594;50.994;7.126;2023-07-28T12:20:02;27.00;74.90
9118;DHT22;4594;50.994;7.126;2023-07-28T12:22:39;27.00;70.80
9118;DHT22;4594;50.994;7.126;2023-07-28T12:25:06;27.10;74.50
9118;DHT22;4594;50.994;7.126;2023-07-28T12:27:32;27.20;74.60
9118;DHT22;4594;50.994;7.126;2023-07-28T12:29:58;27.20;75.20
9118;DHT22;4594;50.994;7.126;2023-07-28T12:32:25;27.30;75.20
9118;DHT22;4594;50.994;7.126;2023-07-28T12:34:51;27.30;74.90
9118;DHT22;4594;50.994;7.126;2023-07-28T12:37:20;27.30;74.10
9118;DHT22;4594;50.994;7.126;2023-07-28T12:39:46;27.40;72.20
9118;DHT22;4594;50.994;7.126;2023-07-28T12:42:14;27.40;71.70
9118;DHT22;4594;50.994;7.126;2023-07-28T12:44:41;27.40;70.60
9118;DHT22;4594;50.994;7.126;2023-07-28T12:47:08;27.40;69.70
9118;DHT22;4594;50.994;7.126;2023-07-28T12:49:33;27.30;68.40
9118;DHT22;4594;50.994;7.126;2023-07-28T12:57:24;27.20;68.00
9118;DHT22;4594;50.994;7.126;2023-07-28T12:59:50;27.10;63.40
9118;DHT22;4594;50.994;7.126;2023-07-28T13:02:17;27.10;67.20
9118;DHT22;4594;50.994;7.126;2023-07-28T13:04:43;27.00;66.60
9118;DHT22;4594;50.994;7.126;2023-07-28T13:07:09;27.00;66.50
9118;DHT22;4594;50.994;7.126;2023-07-28T13:09:35;26.90;67.20
9118;DHT22;4594;50.994;7.126;2023-07-28T13:12:01;26.80;66.80
9118;DHT22;4594;50.994;7.126;2023-07-28T13:14:26;26.80;67.40
9118;DHT22;4594;50.994;7.126;2023-07-28T13:16:52;26.70;68.20
9118;DHT22;4594;50.994;7.126;2023-07-28T13:19:18;26.60;67.30
9118;DHT22;4594;50.994;7.126;2023-07-28T13:21:44;26.60;67.80
9118;DHT22;4594;50.994;7.126;2023-07-28T13:24:10;26.50;67.70
9118;DHT22;4594;50.994;7.126;2023-07-28T13:26:35;26.40;68.50
9118;DHT22;4594;50.994;7.126;2023-07-28T13:29:01;26.30;68.30
9118;DHT22;4594;50.994;7.126;2023-07-28T13:31:27;26.30;68.30
9118;DHT22;4594;50.994;7.126;2023-07-28T13:33:54;26.30;69.00
9118;DHT22;4594;50.994;7.126;2023-07-28T13:36:19;26.20;69.70
9118;DHT22;4594;50.994;7.126;2023-07-28T13:38:45;26.10;69.60
9118;DHT22;4594;50.994;7.126;2023-07-28T13:41:11;26.10;69.80
9118;DHT22;4594;50.994;7.126;2023-07-28T13:43:37;26.00;69.90
9118;DHT22;4594;50.994;7.126;2023-07-28T13:46:06;26.00;69.90
9118;DHT22;4594;50.994;7.126;2023-07-28T13:48:33;25.90;69.00
9118;DHT22;4594;50.994;7.126;2023-07-28T13:51:01;25.90;70.90
9118;DHT22;4594;50.994;7.126;2023-07-28T13:53:27;25.90;70.90
9118;DHT22;4594;50.994;7.126;2023-07-28T13:55:54;25.90;71.80
9118;DHT22;4594;50.994;7.126;2023-07-28T13:58:20;25.90;72.50
9118;DHT22;4594;50.994;7.126;2023-07-28T14:00:46;25.90;73.20
9118;DHT22;4594;50.994;7.126;2023-07-28T14:03:12;25.90;74.10
9118;DHT22;4594;50.994;7.126;2023-07-28T14:05:39;25.90;74.70
9118;DHT22;4594;50.994;7.126;2023-07-28T14:08:05;25.90;75.00
9118;DHT22;4594;50.994;7.126;2023-07-28T14:10:30;26.10;75.10
9118;DHT22;4594;50.994;7.126;2023-07-28T14:12:57;26.10;74.90
9118;DHT22;4594;50.994;7.126;2023-07-28T14:15:24;26.30;75.30
9118;DHT22;4594;50.994;7.126;2023-07-28T14:17:49;26.30;74.80
9118;DHT22;4594;50.994;7.126;2023-07-28T14:20:15;26.30;74.00
9118;DHT22;4594;50.994;7.126;2023-07-28T14:22:41;26.40;74.10
9118;DHT22;4594;50.994;7.126;2023-07-28T14:25:07;26.40;74.00
9118;DHT22;4594;50.994;7.126;2023-07-28T14:27:33;26.50;73.70
9118;DHT22;4594;50.994;7.126;2023-07-28T14:29:58;26.50;73.70
9118;DHT22;4594;50.994;7.126;2023-07-28T14:32:24;26.50;73.60
9118;DHT22;4594;50.994;7.126;2023-07-28T14:34:50;26.60;73.30
9118;DHT22;4594;50.994;7.126;2023-07-28T14:37:15;26.50;73.20
9118;DHT22;4594;50.994;7.126;2023-07-28T14:39:41;26.60;71.70
9118;DHT22;4594;50.994;7.126;2023-07-28T14:42:07;26.60;70.50
9118;DHT22;4594;50.994;7.126;2023-07-28T14:44:33;26.60;69.70
9118;DHT22;4594;50.994;7.126;2023-07-28T14:46:58;26.50;68.90
9118;DHT22;4594;50.994;7.126;2023-07-28T14:49:24;26.60;68.80
9118;DHT22;4594;50.994;7.126;2023-07-28T14:51:56;26.50;68.90
9118;DHT22;4594;50.994;7.126;2023-07-28T14:54:21;26.50;68.70
9118;DHT22;4594;50.994;7.126;2023-07-28T14:56:47;26.40;69.30
9118;DHT22;4594;50.994;7.126;2023-07-28T14:59:13;26.40;69.80
9118;DHT22;4594;50.994;7.126;2023-07-28T15:01:39;26.30;69.60
9118;DHT22;4594;50.994;7.126;2023-07-28T15:04:05;26.40;69.20
9118;DHT22;4594;50.994;7.126;2023-07-28T15:06:31;26.30;68.80
9118;DHT22;4594;50.994;7.126;2023-07-28T15:08:57;26.30;69.00
9118;DHT22;4594;50.994;7.126;2023-07-28T15:11:23;26.20;69.80
9118;DHT22;4594;50.994;7.126;2023-07-28T15:13:50;26.20;69.90
9118;DHT22;4594;50.994;7.126;2023-07-28T15:16:16;26.20;69.90
9118;DHT22;4594;50.994;7.126;2023-07-28T15:18:42;26.10;70.30
9118;DHT22;4594;50.994;7.126;2023-07-28T15:21:07;26.10;70.30
9118;DHT22;4594;50.994;7.126;2023-07-28T15:23:33;26.10;70.60
9118;DHT22;4594;50.994;7.126;2023-07-28T15:26:00;26.00;70.60
9118;DHT22;4594;50.994;7.126;2023-07-28T15:28:26;26.00;70.20
9118;DHT22;4594;50.994;7.126;2023-07-28T15:30:52;26.00;69.50
9118;DHT22;4594;50.994;7.126;2023-07-28T15:33:20;25.90;69.10
9118;DHT22;4594;50.994;7.126;2023-07-28T15:35:49;25.90;68.70
9118;DHT22;4594;50.994;7.126;2023-07-28T15:38:15;25.90;68.70
9118;DHT22;4594;50.994;7.126;2023-07-28T15:40:41;25.80;68.10
9118;DHT22;4594;50.994;7.126;2023-07-28T15:43:07;25.70;68.10
9118;DHT22;4594;50.994;7.126;2023-07-28T15:45:32;25.60;68.00
9118;DHT22;4594;50.994;7.126;2023-07-28T15:47:59;25.50;68.10
9118;DHT22;4594;50.994;7.126;2023-07-28T15:50:24;25.40;68.10
9118;DHT22;4594;50.994;7.126;2023-07-28T15:52:51;25.30;68.50
9118;DHT22;4594;50.994;7.126;2023-07-28T15:55:18;25.30;68.70
9118;DHT22;4594;50.994;7.126;2023-07-28T15:57:44;25.20;69.20
9118;DHT22;4594;50.994;7.126;2023-07-28T16:00:10;25.20;69.60
9118;DHT22;4594;50.994;7.126;2023-07-28T16:02:39;25.00;69.50
9118;DHT22;4594;50.994;7.126;2023-07-28T16:05:06;25.00;69.90
9118;DHT22;4594;50.994;7.126;2023-07-28T16:07:32;24.90;70.50
9118;DHT22;4594;50.994;7.126;2023-07-28T16:09:58;24.90;71.40
9118;DHT22;4594;50.994;7.126;2023-07-28T16:12:25;24.90;72.30
9118;DHT22;4594;50.994;7.126;2023-07-28T16:14:51;24.90;72.70
9118;DHT22;4594;50.994;7.126;2023-07-28T16:17:17;24.90;72.40